CHR2 weather

High River Hospital Helipad
High River, Alberta, Canada

Public forecast

Using degrees Celsius for public forecast. Weather courtesy of forecast.io.

METAR (pilot weather report)

Closest report is Calgary International Airport, 32.7 nm (60.6 km) N. Retrieved 2019/06/25 17:00 UTC (25 minutes ago):

CYYC 251700Z 04005KT 320V050 40SM SCT040 BKN120 14/07 A2988 RMK SC4AC2 SLP128 DENSITY ALT 4400FT

TAF (pilot weather forecast)

Closest forecast is Calgary International Airport, 32.7 nm (60.6 km) N. Retrieved 2019/06/25 15:42 UTC (2 hours ago):

TAF CYYC 251438Z 2515/2612 34010KT P6SM FEW120 FM251700 34008KT P6SM VCSH SCT008 BKN030 FM252100 36008KT P6SM BKN040 TEMPO 2521/2604 P6SM -SHRA VCTS BKN040CB FM260400 30008KT P6SM SCT020 BKN060 TEMPO 2604/2609 4SM -SHRA BR BKN020 FM260900 26005KT 6SM BR BKN060 TEMPO 2610/2612 2SM BR SCT006 SCT060 RMK NXT FCST BY 251800Z